createdAt,value
2024-01-24T00:02:25.069Z,101947.97
2024-01-24T00:04:51.780Z,101953.53
2024-01-24T00:07:18.516Z,101961.84
2024-01-24T00:09:45.293Z,101960.75
2024-01-24T00:12:13.035Z,101954.41
2024-01-24T00:14:39.878Z,101946.78
2024-01-24T00:17:06.531Z,101938.88
2024-01-24T00:19:33.348Z,101946.22
2024-01-24T00:22:00.071Z,101946.41
2024-01-24T00:24:27.064Z,101945.00
2024-01-24T00:26:53.762Z,101943.28
2024-01-24T00:29:20.469Z,101950.56
2024-01-24T00:31:48.473Z,101954.84
2024-01-24T00:34:15.397Z,101953.78
2024-01-24T00:36:42.365Z,101944.78
2024-01-24T00:39:09.181Z,101939.78
2024-01-24T00:41:36.015Z,101944.84
2024-01-24T00:44:02.727Z,101961.19
2024-01-24T00:46:29.596Z,101969.91
2024-01-24T00:48:56.356Z,101965.34
2024-01-24T00:51:23.158Z,101965.22
2024-01-24T00:53:51.277Z,101975.28
2024-01-24T00:56:18.056Z,101977.81
2024-01-24T00:58:44.680Z,101975.72
2024-01-24T01:01:11.443Z,101964.06
2024-01-24T01:03:38.253Z,101979.94
2024-01-24T01:06:05.754Z,101977.34
2024-01-24T01:08:32.430Z,101979.13
2024-01-24T01:10:59.098Z,101971.19
2024-01-24T01:13:25.868Z,101966.00
2024-01-24T01:15:52.776Z,101962.63
2024-01-24T01:18:19.529Z,101963.66
2024-01-24T01:20:46.201Z,101965.91
2024-01-24T01:23:13.037Z,101956.59
2024-01-24T01:25:39.728Z,101950.81
2024-01-24T01:28:06.655Z,101959.91
2024-01-24T01:30:33.558Z,101958.13
2024-01-24T01:33:00.299Z,101953.91
2024-01-24T01:35:29.848Z,101949.84
2024-01-24T01:37:56.603Z,101951.47
2024-01-24T01:40:23.444Z,101956.75
2024-01-24T01:42:50.198Z,101954.25
2024-01-24T01:45:17.088Z,101947.75
2024-01-24T01:47:44.602Z,101943.13
2024-01-24T01:50:14.254Z,101950.03
2024-01-24T01:52:42.994Z,101955.53
2024-01-24T01:55:13.001Z,101949.25
2024-01-24T01:57:43.629Z,101946.41
2024-01-24T02:00:11.982Z,101943.41
2024-01-24T02:02:38.863Z,101943.41
2024-01-24T02:05:05.947Z,101942.00
2024-01-24T02:07:32.806Z,101931.06
2024-01-24T02:09:59.680Z,101920.94
2024-01-24T02:12:26.432Z,101931.88
2024-01-24T02:14:53.326Z,101925.09
2024-01-24T02:17:20.001Z,101919.09
2024-01-24T02:19:46.856Z,101926.53
2024-01-24T02:22:13.622Z,101932.31
2024-01-24T02:24:40.331Z,101947.00
2024-01-24T02:27:07.042Z,101928.72
2024-01-24T02:29:33.792Z,101920.66
2024-01-24T02:32:00.576Z,101925.72
2024-01-24T02:34:27.369Z,101918.47
2024-01-24T02:36:54.146Z,101919.75
2024-01-24T02:39:21.236Z,101912.78
2024-01-24T02:41:47.970Z,101920.94
2024-01-24T02:44:14.611Z,101921.91
2024-01-24T02:46:41.521Z,101913.97
2024-01-24T02:49:08.263Z,101925.63
2024-01-24T02:51:35.047Z,101930.53
2024-01-24T02:54:01.707Z,101931.19
2024-01-24T02:56:28.441Z,101919.03
2024-01-24T02:58:55.487Z,101916.97
2024-01-24T03:01:22.372Z,101920.75
2024-01-24T03:03:49.279Z,101936.91
2024-01-24T03:06:16.098Z,101937.09
2024-01-24T03:08:50.193Z,101928.66
2024-01-24T03:11:17.358Z,101920.50
2024-01-24T03:13:44.207Z,101912.44
2024-01-24T03:16:10.960Z,101908.84
2024-01-24T03:18:38.292Z,101923.50
2024-01-24T03:21:06.629Z,101916.94
2024-01-24T03:23:33.433Z,101914.66
2024-01-24T03:26:00.185Z,101903.22
2024-01-24T03:28:26.866Z,101888.50
2024-01-24T03:30:53.780Z,101878.75
2024-01-24T03:33:20.691Z,101887.94
2024-01-24T03:35:47.527Z,101888.13
2024-01-24T03:38:14.178Z,101897.41
2024-01-24T03:40:41.073Z,101897.41
2024-01-24T03:43:07.960Z,101886.47
2024-01-24T03:45:34.798Z,101879.50
2024-01-24T03:48:01.694Z,101883.63
2024-01-24T03:50:28.457Z,101878.75
2024-01-24T03:52:55.133Z,101867.00
2024-01-24T03:55:22.000Z,101872.00
2024-01-24T03:57:48.753Z,101859.34
2024-01-24T04:00:16.430Z,101859.13
2024-01-24T04:02:43.183Z,101849.13
2024-01-24T04:05:10.061Z,101853.34
2024-01-24T04:07:36.814Z,101853.34
2024-01-24T04:10:04.005Z,101858.59
2024-01-24T04:12:31.505Z,101849.59
2024-01-24T04:14:58.840Z,101852.13
2024-01-24T04:17:25.680Z,101852.03
2024-01-24T04:19:52.442Z,101851.38
2024-01-24T04:22:19.172Z,101848.44
2024-01-24T04:24:46.012Z,101850.50
2024-01-24T04:27:12.727Z,101830.72
2024-01-24T04:29:39.456Z,101821.56
2024-01-24T04:32:06.574Z,101817.41
2024-01-24T04:34:33.313Z,101811.34
2024-01-24T04:37:00.166Z,101818.56
2024-01-24T04:39:26.936Z,101813.03
2024-01-24T04:41:59.056Z,101798.94
2024-01-24T04:44:28.616Z,101795.56
2024-01-24T04:46:55.297Z,101785.25
2024-01-24T04:49:31.003Z,101784.22
2024-01-24T04:52:09.622Z,101783.75
2024-01-24T04:54:36.859Z,101786.34
2024-01-24T04:57:04.106Z,101792.63
2024-01-24T04:59:33.332Z,101790.88
2024-01-24T05:02:04.865Z,101801.19
2024-01-24T05:04:31.577Z,101813.00
2024-01-24T05:06:58.409Z,101818.34
2024-01-24T05:09:25.194Z,101826.41
2024-01-24T05:11:51.904Z,101838.41
2024-01-24T05:14:18.681Z,101840.75
2024-01-24T05:16:45.453Z,101842.75
2024-01-24T05:19:12.491Z,101852.41
2024-01-24T05:21:43.153Z,101854.94
2024-01-24T05:24:11.442Z,101859.50
2024-01-24T05:26:38.645Z,101862.34
2024-01-24T05:29:06.001Z,101856.50
2024-01-24T05:31:32.740Z,101861.88
2024-01-24T05:33:59.552Z,101859.78
2024-01-24T05:36:26.299Z,101862.44
2024-01-24T05:38:53.126Z,101862.13
2024-01-24T05:41:19.833Z,101844.34
2024-01-24T05:43:46.583Z,101844.25
2024-01-24T05:46:13.320Z,101835.03
2024-01-24T05:48:40.100Z,101834.47
2024-01-24T05:51:06.867Z,101835.13
2024-01-24T05:53:33.497Z,101836.78
2024-01-24T05:56:00.197Z,101829.22
2024-01-24T05:58:28.281Z,101834.41
2024-01-24T06:00:55.086Z,101843.19
2024-01-24T06:03:21.821Z,101827.63
2024-01-24T06:05:48.619Z,101831.94
2024-01-24T06:08:15.790Z,101831.66
2024-01-24T06:10:42.570Z,101827.25
2024-01-24T06:13:09.519Z,101813.94
2024-01-24T06:15:36.246Z,101803.91
2024-01-24T06:18:03.033Z,101801.66
2024-01-24T06:20:29.762Z,101807.19
2024-01-24T06:22:56.590Z,101790.81
2024-01-24T06:25:25.784Z,101793.06
2024-01-24T06:27:52.588Z,101802.13
2024-01-24T06:30:23.067Z,101804.56
2024-01-24T06:32:51.126Z,101806.81
2024-01-24T06:35:17.910Z,101797.16
2024-01-24T06:37:44.625Z,101806.25
2024-01-24T06:40:11.639Z,101807.28
2024-01-24T06:42:38.996Z,101815.03
2024-01-24T06:45:06.064Z,101815.50
2024-01-24T06:47:32.922Z,101811.94
2024-01-24T06:49:59.685Z,101809.72
2024-01-24T06:52:29.495Z,101817.84
2024-01-24T06:54:58.029Z,101828.91
2024-01-24T06:57:24.995Z,101833.34
2024-01-24T06:59:51.898Z,101831.25
2024-01-24T07:02:18.747Z,101827.91
2024-01-24T07:04:45.647Z,101822.47
2024-01-24T07:07:12.546Z,101815.75
2024-01-24T07:09:39.513Z,101814.41
2024-01-24T07:12:06.792Z,101808.84
2024-01-24T07:14:33.798Z,101806.91
2024-01-24T07:17:00.718Z,101805.47
2024-01-24T07:19:27.679Z,101802.53
2024-01-24T07:21:54.679Z,101808.69
2024-01-24T07:24:21.586Z,101794.69
2024-01-24T07:26:48.398Z,101796.75
2024-01-24T07:29:16.375Z,101790.72
2024-01-24T07:31:43.069Z,101787.47
2024-01-24T07:34:09.935Z,101790.75
2024-01-24T07:36:36.722Z,101791.34
2024-01-24T07:39:03.553Z,101802.56
2024-01-24T07:41:30.246Z,101801.59
2024-01-24T07:43:57.027Z,101802.34
2024-01-24T07:46:23.870Z,101810.69
2024-01-24T07:48:50.740Z,101802.63
2024-01-24T07:51:17.671Z,101800.31
2024-01-24T07:53:44.448Z,101787.81
2024-01-24T07:56:19.697Z,101803.84
2024-01-24T07:58:51.655Z,101803.00
2024-01-24T08:01:18.584Z,101797.97
2024-01-24T08:03:46.427Z,101790.00
2024-01-24T08:06:16.125Z,101785.88
2024-01-24T08:08:43.068Z,101778.75
2024-01-24T08:11:13.221Z,101777.44
2024-01-24T08:13:40.138Z,101761.19
2024-01-24T08:16:07.003Z,101754.94
2024-01-24T08:18:34.038Z,101756.59
2024-01-24T08:21:00.786Z,101747.81
2024-01-24T08:23:34.702Z,101746.50
2024-01-24T08:26:10.570Z,101745.16
2024-01-24T08:28:37.624Z,101747.41
2024-01-24T08:31:05.010Z,101742.00
2024-01-24T08:33:31.895Z,101741.16
2024-01-24T08:35:58.616Z,101737.06
2024-01-24T08:38:25.334Z,101726.81
2024-01-24T08:40:58.085Z,101708.53
2024-01-24T08:43:25.318Z,101710.19
2024-01-24T08:45:53.516Z,101711.28
2024-01-24T08:48:20.611Z,101714.41
2024-01-24T08:50:48.682Z,101714.91
2024-01-24T08:53:15.849Z,101725.78
2024-01-24T08:56:12.706Z,101714.53
2024-01-24T08:58:48.365Z,101711.59
2024-01-24T09:01:15.676Z,101715.28
2024-01-24T09:03:42.714Z,101704.97
2024-01-24T09:06:10.019Z,101710.41
2024-01-24T09:08:37.029Z,101698.66
2024-01-24T09:11:03.830Z,101712.75
2024-01-24T09:13:30.845Z,101716.47
2024-01-24T09:16:00.414Z,101706.00
2024-01-24T09:18:27.406Z,101709.44
2024-01-24T09:20:54.278Z,101705.38
2024-01-24T09:23:21.034Z,101699.75
2024-01-24T09:25:47.875Z,101687.31
2024-01-24T09:28:14.698Z,101664.66
2024-01-24T09:30:42.571Z,101666.78
2024-01-24T09:33:09.947Z,101676.38
2024-01-24T09:35:37.085Z,101668.63
2024-01-24T09:38:04.037Z,101666.13
2024-01-24T09:40:31.208Z,101645.56
2024-01-24T09:43:02.345Z,101651.03
2024-01-24T09:45:31.954Z,101646.38
2024-01-24T09:47:59.646Z,101639.69
2024-01-24T09:50:28.054Z,101623.59
2024-01-24T09:52:56.474Z,101606.63
2024-01-24T09:55:25.012Z,101584.38
2024-01-24T09:57:51.933Z,101582.25
2024-01-24T10:00:19.024Z,101566.34
2024-01-24T10:02:47.372Z,101561.44
2024-01-24T10:05:19.923Z,101554.75
2024-01-24T10:07:46.734Z,101537.78
2024-01-24T10:10:14.428Z,101536.06
2024-01-24T10:12:44.493Z,101529.34
2024-01-24T10:15:11.989Z,101528.31
2024-01-24T10:17:43.021Z,101530.00
2024-01-24T10:20:13.579Z,101528.94
2024-01-24T10:22:41.353Z,101519.09
2024-01-24T10:25:08.790Z,101518.66
2024-01-24T10:27:36.075Z,101521.19
2024-01-24T10:30:03.399Z,101501.44
2024-01-24T10:32:32.736Z,101503.97
2024-01-24T10:34:59.573Z,101509.69
2024-01-24T10:37:27.002Z,101506.31
2024-01-24T10:39:56.856Z,101504.00
2024-01-24T10:42:28.639Z,101499.81
2024-01-24T10:44:56.827Z,101489.53
2024-01-24T10:47:23.953Z,101481.53
2024-01-24T10:49:51.695Z,101495.41
2024-01-24T10:52:21.047Z,101476.06
2024-01-24T10:54:49.777Z,101474.41
2024-01-24T10:57:20.300Z,101467.47
2024-01-24T10:59:50.996Z,101454.03
2024-01-24T11:02:18.416Z,101452.56
2024-01-24T11:04:46.984Z,101442.09
2024-01-24T11:07:20.602Z,101448.59
2024-01-24T11:10:10.627Z,101456.56
2024-01-24T11:12:37.859Z,101447.56
2024-01-24T11:15:05.584Z,101393.75
2024-01-24T11:17:33.547Z,101364.00
2024-01-24T11:20:04.920Z,101365.81
2024-01-24T11:22:31.791Z,101388.63
2024-01-24T11:24:58.667Z,101382.81
2024-01-24T11:27:36.091Z,101371.91
2024-01-24T11:30:07.393Z,101374.41
2024-01-24T11:32:46.507Z,101380.31
2024-01-24T11:35:32.038Z,101357.22
2024-01-24T11:38:16.202Z,101325.50
2024-01-24T11:40:53.040Z,101314.13
2024-01-24T11:43:28.903Z,101323.66
2024-01-24T11:45:58.246Z,101327.88
2024-01-24T11:48:26.528Z,101329.75
2024-01-24T11:51:03.690Z,101336.44
2024-01-24T11:53:30.877Z,101335.00
2024-01-24T11:55:59.684Z,101342.09
2024-01-24T11:58:27.936Z,101340.41
2024-01-24T12:01:09.007Z,101340.84
2024-01-24T12:03:36.382Z,101325.28
2024-01-24T12:06:04.263Z,101310.81
2024-01-24T12:08:34.014Z,101305.59
2024-01-24T12:11:00.855Z,101281.28
2024-01-24T12:13:29.228Z,101264.06
2024-01-24T12:15:57.356Z,101240.34
2024-01-24T12:18:26.671Z,101231.66
2024-01-24T12:20:56.994Z,101230.19
2024-01-24T12:23:26.951Z,101221.13
2024-01-24T12:25:54.804Z,101213.63
2024-01-24T12:28:23.098Z,101227.78
2024-01-24T12:30:52.714Z,101224.88
2024-01-24T12:33:20.340Z,101212.09
2024-01-24T12:35:51.074Z,101215.59
2024-01-24T12:38:18.480Z,101222.66
2024-01-24T12:40:53.323Z,101214.72
2024-01-24T12:43:21.051Z,101206.09
2024-01-24T12:45:48.104Z,101214.91
2024-01-24T12:48:15.104Z,101231.91
2024-01-24T12:50:43.417Z,101235.66
2024-01-24T12:53:10.290Z,101219.28
2024-01-24T12:55:37.000Z,101217.44
2024-01-24T12:58:04.189Z,101208.09
2024-01-24T13:00:31.008Z,101192.53
2024-01-24T13:02:57.759Z,101177.44
2024-01-24T13:05:32.195Z,101187.28
2024-01-24T13:08:06.571Z,101176.63
2024-01-24T13:10:33.359Z,101171.63
2024-01-24T13:13:00.488Z,101174.66
2024-01-24T13:15:29.544Z,101167.56
2024-01-24T13:17:56.388Z,101172.16
2024-01-24T13:20:23.023Z,101169.75
2024-01-24T13:22:49.793Z,101165.84
2024-01-24T13:25:16.480Z,101174.03
2024-01-24T13:27:43.319Z,101174.19
2024-01-24T13:30:11.647Z,101175.00
2024-01-24T13:32:38.793Z,101171.47
2024-01-24T13:35:05.927Z,101182.78
2024-01-24T13:37:39.405Z,101176.03
2024-01-24T13:40:12.912Z,101166.00
2024-01-24T13:42:40.959Z,101166.84
2024-01-24T13:45:08.178Z,101157.19
2024-01-24T13:47:35.037Z,101125.25
2024-01-24T13:50:02.220Z,101130.53
2024-01-24T13:52:29.531Z,101139.16
2024-01-24T13:54:57.031Z,101140.41
2024-01-24T13:57:23.853Z,101155.06
2024-01-24T13:59:50.698Z,101151.22
2024-01-24T14:02:17.927Z,101137.38
2024-01-24T14:04:44.891Z,101131.53
2024-01-24T14:07:11.782Z,101136.78
2024-01-24T14:09:40.509Z,101156.72
2024-01-24T14:12:08.035Z,101147.47
2024-01-24T14:14:35.009Z,101145.28
2024-01-24T14:17:01.795Z,101140.09
2024-01-24T14:19:28.687Z,101144.91
2024-01-24T14:21:55.581Z,101128.25
2024-01-24T14:24:22.406Z,101135.63
2024-01-24T14:26:49.808Z,101140.91
2024-01-24T14:29:16.778Z,101134.81
2024-01-24T14:31:43.691Z,101126.59
2024-01-24T14:34:10.781Z,101113.59
2024-01-24T14:36:38.129Z,101091.31
2024-01-24T14:39:05.420Z,101091.50
2024-01-24T14:41:32.090Z,101098.94
2024-01-24T14:43:58.839Z,101089.53
2024-01-24T14:46:25.636Z,101078.63
2024-01-24T14:48:52.555Z,101067.28
2024-01-24T14:51:19.351Z,101056.31
2024-01-24T14:53:46.039Z,101066.25
2024-01-24T14:56:12.853Z,101050.00
2024-01-24T14:58:39.695Z,101057.16
2024-01-24T15:01:06.481Z,101051.53
2024-01-24T15:03:33.300Z,101059.72
2024-01-24T15:06:00.150Z,101055.78
2024-01-24T15:08:26.825Z,101074.38
2024-01-24T15:10:53.611Z,101063.91
2024-01-24T15:13:20.474Z,101050.31
2024-01-24T15:15:47.220Z,101014.03
2024-01-24T15:18:14.224Z,101019.94
2024-01-24T15:20:45.534Z,101006.84
2024-01-24T15:23:20.302Z,101007.84
2024-01-24T15:25:46.958Z,100992.53
2024-01-24T15:28:13.867Z,100993.56
2024-01-24T15:30:40.693Z,100985.84
2024-01-24T15:33:07.586Z,100980.63
2024-01-24T15:35:34.450Z,100978.22
2024-01-24T15:38:01.353Z,100971.13
2024-01-24T15:40:28.046Z,100975.28
2024-01-24T15:42:54.779Z,100982.34
2024-01-24T15:45:21.576Z,100961.50
2024-01-24T15:47:48.539Z,100971.50
2024-01-24T15:50:15.794Z,100979.47
2024-01-24T15:52:42.544Z,100980.16
2024-01-24T15:55:09.738Z,100978.41
2024-01-24T15:57:36.593Z,100986.59
2024-01-24T16:00:03.935Z,100985.47
2024-01-24T16:02:31.377Z,100983.94
2024-01-24T16:04:58.403Z,100961.72
2024-01-24T16:07:25.425Z,100972.47
2024-01-24T16:09:52.311Z,100963.25
2024-01-24T16:12:19.603Z,100986.53
2024-01-24T16:14:46.291Z,100977.19
2024-01-24T16:17:12.998Z,100983.84
2024-01-24T16:19:39.810Z,100991.47
2024-01-24T16:22:06.751Z,100952.91
2024-01-24T16:24:33.535Z,100945.38
2024-01-24T16:27:00.272Z,100945.38
2024-01-24T16:29:27.005Z,100934.47
2024-01-24T16:31:53.943Z,100944.72
2024-01-24T16:34:21.501Z,100956.00
2024-01-24T16:36:48.380Z,100957.13
2024-01-24T16:39:15.161Z,100941.97
2024-01-24T16:41:41.853Z,100946.81
2024-01-24T16:44:08.724Z,100930.00
2024-01-24T16:46:35.378Z,100927.09
2024-01-24T16:49:02.131Z,100911.81
2024-01-24T16:51:28.910Z,100891.34
2024-01-24T16:53:55.675Z,100919.69
2024-01-24T16:56:22.445Z,100936.28
2024-01-24T16:58:49.150Z,100945.78
2024-01-24T17:01:16.287Z,100938.63
2024-01-24T17:03:43.152Z,100953.53
2024-01-24T17:06:10.008Z,100932.34
2024-01-24T17:08:37.468Z,100947.59
2024-01-24T17:11:04.373Z,100943.34
2024-01-24T17:13:31.100Z,100950.88
2024-01-24T17:15:58.006Z,100943.31
2024-01-24T17:18:27.775Z,100946.03
2024-01-24T17:20:54.698Z,100963.81
2024-01-24T17:23:21.341Z,100977.03
2024-01-24T17:25:48.030Z,100949.13
2024-01-24T17:28:14.812Z,100974.25
2024-01-24T17:30:41.586Z,100971.50
2024-01-24T17:33:08.416Z,100975.38
2024-01-24T17:35:37.880Z,100957.91
2024-01-24T17:38:05.349Z,100956.09
2024-01-24T17:40:31.998Z,100940.63
2024-01-24T17:43:01.245Z,100920.06
2024-01-24T17:45:28.012Z,100922.78
2024-01-24T17:47:56.035Z,100913.31
2024-01-24T17:50:22.888Z,100905.59
2024-01-24T17:52:49.597Z,100896.94
2024-01-24T17:55:17.464Z,100891.03
2024-01-24T17:57:44.506Z,100882.63
2024-01-24T18:00:11.838Z,100870.44
2024-01-24T18:02:38.555Z,100863.75
2024-01-24T18:05:07.131Z,100875.88
2024-01-24T18:07:34.163Z,100875.88
2024-01-24T18:10:01.074Z,100861.78
2024-01-24T18:12:27.821Z,100858.91
2024-01-24T18:14:57.432Z,100844.09
2024-01-24T18:17:24.181Z,100844.47
2024-01-24T18:19:51.416Z,100855.63
2024-01-24T18:22:18.358Z,100853.13
2024-01-24T18:24:45.003Z,100859.03
2024-01-24T18:27:11.708Z,100868.47
2024-01-24T18:29:38.719Z,100867.69
2024-01-24T18:32:06.132Z,100854.34
2024-01-24T18:34:33.410Z,100876.78
2024-01-24T18:37:00.793Z,100861.03
2024-01-24T18:39:27.653Z,100865.66
2024-01-24T18:41:54.356Z,100862.31
2024-01-24T18:44:21.045Z,100863.59
2024-01-24T18:46:50.909Z,100850.16
2024-01-24T18:49:17.791Z,100855.63
2024-01-24T18:51:44.679Z,100840.09
2024-01-24T18:54:11.647Z,100845.84
2024-01-24T18:56:38.314Z,100831.97
2024-01-24T18:59:05.221Z,100823.78
2024-01-24T19:01:32.098Z,100836.09
2024-01-24T19:04:00.507Z,100822.22
2024-01-24T19:06:28.248Z,100819.47
2024-01-24T19:08:55.207Z,100814.19
2024-01-24T19:11:22.408Z,100815.22
2024-01-24T19:13:49.195Z,100807.19
2024-01-24T19:16:16.952Z,100787.03
2024-01-24T19:18:43.739Z,100779.44
2024-01-24T19:21:10.685Z,100773.19
2024-01-24T19:23:37.353Z,100773.81
2024-01-24T19:26:04.270Z,100787.25
2024-01-24T19:28:30.943Z,100786.38
2024-01-24T19:30:57.686Z,100790.19
2024-01-24T19:33:24.475Z,100802.78
2024-01-24T19:35:51.164Z,100809.66
2024-01-24T19:38:18.039Z,100801.88
2024-01-24T19:40:44.729Z,100793.28
2024-01-24T19:43:11.641Z,100799.56
2024-01-24T19:45:40.531Z,100817.63
2024-01-24T19:48:07.574Z,100824.59
2024-01-24T19:50:34.368Z,100825.31
2024-01-24T19:53:01.108Z,100819.69
2024-01-24T19:55:27.996Z,100829.53
2024-01-24T19:57:55.406Z,100828.25
2024-01-24T20:00:22.422Z,100823.88
2024-01-24T20:02:49.130Z,100823.25
2024-01-24T20:05:16.454Z,100823.09
2024-01-24T20:07:43.402Z,100831.91
2024-01-24T20:10:11.036Z,100840.72
2024-01-24T20:12:37.873Z,100852.09
2024-01-24T20:15:05.215Z,100853.13
2024-01-24T20:17:32.051Z,100856.31
2024-01-24T20:19:58.837Z,100860.47
2024-01-24T20:22:26.473Z,100857.38
2024-01-24T20:24:53.285Z,100858.00
2024-01-24T20:27:20.040Z,100853.06
2024-01-24T20:29:48.453Z,100852.75
2024-01-24T20:32:15.515Z,100841.38
2024-01-24T20:34:42.326Z,100834.16
2024-01-24T20:37:09.358Z,100838.78
2024-01-24T20:39:37.707Z,100832.59
2024-01-24T20:42:10.776Z,100828.72
2024-01-24T20:44:40.602Z,100820.91
2024-01-24T20:47:07.429Z,100831.22
2024-01-24T20:49:34.186Z,100855.09
2024-01-24T20:52:00.972Z,100840.16
2024-01-24T20:54:27.708Z,100845.97
2024-01-24T20:56:54.521Z,100847.56
2024-01-24T20:59:22.294Z,100841.06
2024-01-24T21:01:51.041Z,100841.19
2024-01-24T21:04:18.059Z,100835.50
2024-01-24T21:06:45.811Z,100819.28
2024-01-24T21:09:13.660Z,100800.88
2024-01-24T21:11:40.403Z,100800.75
2024-01-24T21:14:07.089Z,100795.19
2024-01-24T21:16:35.001Z,100779.03
2024-01-24T21:19:01.822Z,100780.13
2024-01-24T21:21:28.593Z,100782.22
2024-01-24T21:23:55.354Z,100792.69
2024-01-24T21:26:22.318Z,100800.88
2024-01-24T21:28:48.961Z,100798.25
2024-01-24T21:31:15.973Z,100809.19
2024-01-24T21:33:42.823Z,100802.38
2024-01-24T21:36:09.872Z,100803.63
2024-01-24T21:38:36.582Z,100801.56
2024-01-24T21:41:03.359Z,100803.69
2024-01-24T21:43:30.061Z,100796.22
2024-01-24T21:45:56.683Z,100789.06
2024-01-24T21:48:23.478Z,100788.47
2024-01-24T21:50:50.162Z,100780.50
2024-01-24T21:53:16.988Z,100788.09
2024-01-24T21:55:43.840Z,100791.22
2024-01-24T21:58:10.641Z,100784.31
2024-01-24T22:00:37.352Z,100780.97
2024-01-24T22:03:04.321Z,100789.94
2024-01-24T22:05:31.102Z,100785.66
2024-01-24T22:07:57.907Z,100787.19
2024-01-24T22:10:24.623Z,100790.59
2024-01-24T22:12:51.380Z,100787.34
2024-01-24T22:15:18.480Z,100781.88
2024-01-24T22:17:45.265Z,100777.72
2024-01-24T22:20:12.380Z,100780.06
2024-01-24T22:22:39.105Z,100775.38
2024-01-24T22:25:08.338Z,100784.09
2024-01-24T22:27:35.204Z,100772.66
2024-01-24T22:30:02.020Z,100774.53
2024-01-24T22:32:28.766Z,100772.66
2024-01-24T22:34:55.658Z,100771.16
2024-01-24T22:37:22.532Z,100775.16
2024-01-24T22:39:49.298Z,100769.75
2024-01-24T22:42:16.142Z,100767.44
2024-01-24T22:44:42.802Z,100759.00
2024-01-24T22:47:09.537Z,100757.81
2024-01-24T22:49:36.363Z,100759.94
2024-01-24T22:52:03.148Z,100748.88
2024-01-24T22:54:30.060Z,100743.03
2024-01-24T22:56:56.914Z,100746.88
2024-01-24T22:59:23.733Z,100756.78
2024-01-24T23:01:50.632Z,100753.59
2024-01-24T23:04:17.679Z,100740.44
2024-01-24T23:06:44.650Z,100738.63
2024-01-24T23:09:11.429Z,100732.22
2024-01-24T23:11:38.226Z,100740.41
2024-01-24T23:14:04.946Z,100729.03
2024-01-24T23:16:31.867Z,100730.22
2024-01-24T23:18:58.923Z,100725.56
2024-01-24T23:21:25.777Z,100719.88
2024-01-24T23:23:52.475Z,100724.28
2024-01-24T23:26:19.170Z,100724.28
2024-01-24T23:28:45.934Z,100721.69
2024-01-24T23:31:12.789Z,100722.03
2024-01-24T23:33:39.586Z,100721.81
2024-01-24T23:36:08.218Z,100707.22
2024-01-24T23:38:35.056Z,100717.69
2024-01-24T23:41:01.768Z,100714.47
2024-01-24T23:43:28.430Z,100715.91
2024-01-24T23:45:55.120Z,100711.88
2024-01-24T23:48:21.973Z,100719.59
2024-01-24T23:50:49.164Z,100721.38
2024-01-24T23:53:16.625Z,100709.50
2024-01-24T23:55:43.520Z,100717.25
2024-01-24T23:58:10.298Z,100710.22
